Kevil, Kentucky
Current Conditions -  °F | °C
As of 3:53 PM on Wednesday 22 Oct 2014 (Local Time) from KPAH Reporting Station
Clear Clear  
Wind Chill: 64°   Ceiling: Unl
Heat Index: 64°   Visibility: 10mi
Dew Point: 43°   Wind: 10mph
Humidity: 46%   Direction: 50°NE
Pressure: 30.21"   Gusts: NA
Location:  37.09°N, 88.89°W
Report Text: KPAH 222053Z 05009KT 10SM CLR 18/06 A3021 RMK AO2 SLP231 T01780061 56019
Loading
Personal Weather Stations






























Interactive Weather Map New forecast layout! Learn more

10-Day Weather Forecast

Advertisements
Track Severe Weather on mobile